Wetterstation Vordersexau
Wetterdaten: Woche 02.11.15 - 08.11.15 (KW45)
Datum Zeit Temp. A. Feuchte A. Luftdruck Regen Wind Richtung Taupunkt Windchill Windben
02.11.2015 00:00 6,7 C 85 % 1026,6 hPa 0,0 l/m 0,0 km/h SO 4,4 C 6,7 C 0,0 km/h
02.11.2015 01:00 6,6 C 85 % 1026,3 hPa 0,0 l/m 0,0 km/h S 4,3 C 6,6 C 0,0 km/h
02.11.2015 02:00 6,2 C 84 % 1026,7 hPa 0,0 l/m 0,0 km/h S-SO 3,7 C 6,2 C 0,0 km/h
02.11.2015 03:00 5,9 C 84 % 1026,2 hPa 0,0 l/m 0,0 km/h SO 3,4 C 5,9 C 0,0 km/h
02.11.2015 04:00 5,8 C 84 % 1026,1 hPa 0,0 l/m 0,0 km/h S-SO 3,3 C 5,8 C 0,0 km/h
02.11.2015 05:00 5,8 C 83 % 1025,8 hPa 0,0 l/m 0,0 km/h SO 3,1 C 5,8 C 0,0 km/h
02.11.2015 06:00 5,6 C 83 % 1026,0 hPa 0,0 l/m 0,0 km/h SO 2,9 C 5,6 C 0,0 km/h
02.11.2015 07:00 5,4 C 83 % 1025,9 hPa 0,0 l/m 0,0 km/h SO 2,7 C 5,4 C 0,0 km/h
02.11.2015 08:00 5,4 C 83 % 1026,3 hPa 0,0 l/m 0,0 km/h SO 2,7 C 5,4 C 0,0 km/h
02.11.2015 09:00 5,8 C 83 % 1026,1 hPa 0,0 l/m 0,0 km/h SO 3,1 C 5,8 C 0,0 km/h
02.11.2015 10:00 6,9 C 86 % 1026,2 hPa 0,0 l/m 0,0 km/h SO 4,7 C 6,9 C 0,0 km/h
02.11.2015 11:00 7,6 C 88 % 1026,1 hPa 0,0 l/m 0,0 km/h NO 5,7 C 7,6 C 0,0 km/h
02.11.2015 12:00 8,3 C 89 % 1025,7 hPa 0,0 l/m 0,0 km/h NW 6,6 C 8,3 C 0,0 km/h
02.11.2015 13:00 8,2 C 89 % 1025,2 hPa 0,0 l/m 0,0 km/h N 6,5 C 8,2 C 0,0 km/h
02.11.2015 14:00 8,6 C 89 % 1025,1 hPa 0,0 l/m 0,0 km/h N 6,9 C 8,6 C 0,0 km/h
02.11.2015 15:00 8,1 C 88 % 1025,2 hPa 0,0 l/m 0,0 km/h N-NW 6,2 C 8,1 C 0,0 km/h
02.11.2015 16:00 7,5 C 89 % 1024,7 hPa 0,0 l/m 0,0 km/h O-SO 5,8 C 7,5 C 0,0 km/h
02.11.2015 17:00 7,1 C 89 % 1024,3 hPa 0,0 l/m 0,0 km/h O-SO 5,4 C 7,1 C 0,0 km/h
02.11.2015 18:00 6,8 C 89 % 1024,3 hPa 0,0 l/m 0,0 km/h O-NO 5,1 C 6,8 C 0,0 km/h
02.11.2015 19:00 6,6 C 88 % 1024,1 hPa 0,0 l/m 0,0 km/h SO 4,8 C 6,6 C 0,0 km/h
02.11.2015 20:00 6,5 C 87 % 1023,6 hPa 0,0 l/m 0,0 km/h SO 4,5 C 6,5 C 0,0 km/h
02.11.2015 21:00 6,3 C 87 % 1023,7 hPa 0,0 l/m 0,0 km/h SO 4,3 C 6,3 C 0,0 km/h
02.11.2015 22:00 6,3 C 86 % 1023,7 hPa 0,4 l/m 0,0 km/h S-SO 4,1 C 6,3 C 0,0 km/h
02.11.2015 23:00 6,1 C 85 % 1023,2 hPa 0,0 l/m 0,0 km/h NO 3,8 C 6,1 C 0,0 km/h
03.11.2015 00:00 5,8 C 85 % 1022,6 hPa 0,0 l/m 0,0 km/h NO 3,5 C 5,8 C 0,0 km/h
03.11.2015 01:00 5,3 C 85 % 1022,3 hPa 0,0 l/m 0,0 km/h SO 3,0 C 5,3 C 0,0 km/h
03.11.2015 02:00 5,2 C 84 % 1021,6 hPa 0,0 l/m 0,0 km/h SO 2,7 C 5,2 C 0,0 km/h
03.11.2015 03:00 4,9 C 84 % 1021,4 hPa 0,0 l/m 0,0 km/h SO 2,4 C 4,9 C 0,0 km/h
03.11.2015 04:00 4,7 C 84 % 1021,3 hPa 0,0 l/m 0,0 km/h SO 2,2 C 4,7 C 0,0 km/h
03.11.2015 05:00 4,9 C 83 % 1020,5 hPa 0,0 l/m 0,0 km/h SO 2,3 C 4,9 C 0,0 km/h
03.11.2015 06:00 4,3 C 83 % 1020,7 hPa 0,0 l/m 0,0 km/h S-SO 1,7 C 4,3 C 0,0 km/h
03.11.2015 07:00 4,3 C 83 % 1020,6 hPa 0,0 l/m 0,0 km/h SO 1,7 C 4,3 C 0,0 km/h
03.11.2015 08:00 4,7 C 83 % 1020,3 hPa 0,0 l/m 0,0 km/h S-SO 2,1 C 4,7 C 0,0 km/h
03.11.2015 09:00 5,0 C 84 % 1020,0 hPa 0,0 l/m 0,0 km/h S-SW 2,5 C 5,0 C 0,0 km/h
03.11.2015 10:00 5,4 C 85 % 1019,6 hPa 0,0 l/m 0,0 km/h N-NO 3,1 C 5,4 C 0,0 km/h
03.11.2015 11:00 6,6 C 88 % 1019,0 hPa 0,0 l/m 0,0 km/h W-NW 4,8 C 6,6 C 0,0 km/h
03.11.2015 12:00 6,6 C 90 % 1019,8 hPa 0,0 l/m 0,0 km/h W-SW 5,1 C 6,6 C 0,0 km/h
03.11.2015 13:00 6,9 C 90 % 1019,4 hPa 0,0 l/m 0,0 km/h N-NO 5,4 C 6,9 C 0,0 km/h
03.11.2015 14:00 7,2 C 89 % 1019,1 hPa 0,0 l/m 0,0 km/h W 5,5 C 7,2 C 0,0 km/h
03.11.2015 15:00 6,9 C 89 % 1019,5 hPa 0,0 l/m 0,0 km/h N-NO 5,2 C 6,9 C 0,0 km/h
03.11.2015 16:00 6,5 C 90 % 1018,0 hPa 0,0 l/m 0,0 km/h NW 5,0 C 6,5 C 0,0 km/h
03.11.2015 17:00 5,9 C 89 % 1018,5 hPa 0,0 l/m 0,0 km/h NW 4,2 C 5,9 C 0,0 km/h
03.11.2015 18:00 5,2 C 89 % 1018,4 hPa 0,0 l/m 0,0 km/h NW 3,5 C 5,2 C 0,0 km/h
03.11.2015 19:00 4,6 C 89 % 1018,8 hPa 0,0 l/m 0,0 km/h NW 2,9 C 4,6 C 0,0 km/h
03.11.2015 20:00 4,4 C 89 % 1019,7 hPa 0,0 l/m 0,0 km/h NW 2,7 C 4,4 C 0,0 km/h
03.11.2015 21:00 4,4 C 89 % 1019,9 hPa 0,0 l/m 0,0 km/h NW 2,7 C 4,4 C 0,0 km/h
03.11.2015 22:00 3,5 C 89 % 1020,2 hPa 0,0 l/m 0,0 km/h NW 1,9 C 3,5 C 0,0 km/h
03.11.2015 23:00 3,0 C 89 % 1020,6 hPa 0,0 l/m 0,0 km/h NW 1,4 C 3,0 C 0,0 km/h
04.11.2015 00:00 2,9 C 89 % 1020,5 hPa 0,0 l/m 0,0 km/h NW 1,3 C 2,9 C 0,0 km/h
04.11.2015 01:00 2,4 C 88 % 1020,6 hPa 0,0 l/m 0,0 km/h NW 0,6 C 2,4 C 0,0 km/h
04.11.2015 02:00 2,4 C 88 % 1020,4 hPa 0,0 l/m 0,0 km/h NW 0,6 C 2,4 C 0,0 km/h
04.11.2015 03:00 1,8 C 88 % 1020,2 hPa 0,0 l/m 0,0 km/h NW 0,0 C 1,8 C 0,0 km/h
04.11.2015 04:00 1,4 C 88 % 1020,2 hPa 0,0 l/m 0,0 km/h NW -0,4 C 1,4 C 0,0 km/h
04.11.2015 05:00 1,4 C 88 % 1020,4 hPa 0,0 l/m 0,0 km/h NW -0,4 C 1,4 C 0,0 km/h
04.11.2015 06:00 1,3 C 88 % 1020,7 hPa 0,0 l/m 0,0 km/h N-NO -0,5 C 1,3 C 0,0 km/h
04.11.2015 07:00 2,1 C 88 % 1020,3 hPa 0,0 l/m 0,0 km/h NW 0,3 C 2,1 C 0,0 km/h
04.11.2015 08:00 4,2 C 86 % 1020,2 hPa 0,0 l/m 0,0 km/h N-NW 2,1 C 4,2 C 0,0 km/h
04.11.2015 09:00 7,9 C 83 % 1020,1 hPa 0,0 l/m 0,0 km/h W 5,2 C 7,9 C 0,0 km/h
04.11.2015 10:00 15,7 C 78 % 1020,2 hPa 0,0 l/m 0,0 km/h N-NW 11,9 C 15,7 C 0,0 km/h
04.11.2015 11:00 17,5 C 72 % 1019,9 hPa 0,0 l/m 0,0 km/h N-NW 12,4 C 17,5 C 0,0 km/h
04.11.2015 12:00 18,0 C 69 % 1019,1 hPa 0,0 l/m 0,0 km/h O-NO 12,2 C 18,0 C 0,0 km/h
04.11.2015 13:00 19,4 C 69 % 1018,8 hPa 0,0 l/m 0,0 km/h W 13,6 C 19,4 C 0,0 km/h
04.11.2015 14:00 19,8 C 60 % 1018,6 hPa 0,0 l/m 0,0 km/h W-SW 11,8 C 19,8 C 0,0 km/h
04.11.2015 15:00 23,7 C 50 % 1018,3 hPa 0,0 l/m 0,0 km/h SW 12,6 C 23,7 C 0,0 km/h
04.11.2015 16:00 15,8 C 63 % 1018,2 hPa 0,0 l/m 0,0 km/h S-SO 8,8 C 15,8 C 0,0 km/h
04.11.2015 17:00 12,9 C 77 % 1018,4 hPa 0,0 l/m 0,0 km/h O-NO 9,0 C 12,9 C 0,0 km/h
04.11.2015 18:00 12,2 C 81 % 1018,5 hPa 0,0 l/m 0,0 km/h O-NO 9,0 C 12,2 C 0,0 km/h
04.11.2015 19:00 11,3 C 84 % 1018,9 hPa 0,0 l/m 0,0 km/h O-SO 8,7 C 11,3 C 0,0 km/h
04.11.2015 20:00 11,3 C 85 % 1018,8 hPa 0,0 l/m 0,0 km/h O-SO 8,9 C 11,3 C 0,0 km/h
04.11.2015 21:00 9,6 C 86 % 1019,2 hPa 0,0 l/m 0,0 km/h O 7,4 C 9,6 C 0,0 km/h
04.11.2015 22:00 9,9 C 88 % 1019,3 hPa 0,0 l/m 0,0 km/h O-SO 8,0 C 9,9 C 0,0 km/h
04.11.2015 23:00 10,3 C 88 % 1019,1 hPa 0,0 l/m 0,0 km/h O-SO 8,4 C 10,3 C 0,0 km/h
05.11.2015 00:00 9,8 C 88 % 1019,1 hPa 0,0 l/m 0,0 km/h O-SO 7,9 C 9,8 C 0,0 km/h
05.11.2015 01:00 9,6 C 88 % 1019,7 hPa 0,0 l/m 0,0 km/h O 7,7 C 9,6 C 0,0 km/h
05.11.2015 02:00 10,2 C 88 % 1019,8 hPa 0,0 l/m 0,0 km/h O 8,3 C 10,2 C 0,0 km/h
05.11.2015 03:00 9,6 C 88 % 1019,7 hPa 0,0 l/m 0,0 km/h O 7,7 C 9,6 C 0,0 km/h
05.11.2015 04:00 8,1 C 88 % 1019,7 hPa 0,0 l/m 0,0 km/h O 6,2 C 8,1 C 0,0 km/h
05.11.2015 05:00 7,0 C 89 % 1019,8 hPa 0,0 l/m 0,0 km/h O 5,3 C 7,0 C 0,0 km/h
05.11.2015 06:00 6,5 C 89 % 1020,1 hPa 0,0 l/m 0,0 km/h O-NO 4,8 C 6,5 C 0,0 km/h
05.11.2015 07:00 5,8 C 89 % 1020,6 hPa 0,0 l/m 0,0 km/h O 4,1 C 5,8 C 0,0 km/h
05.11.2015 08:00 10,8 C 87 % 1020,8 hPa 0,0 l/m 0,0 km/h SO 8,7 C 10,8 C 0,0 km/h
05.11.2015 09:00 15,4 C 82 % 1020,5 hPa 0,0 l/m 0,0 km/h O-NO 12,3 C 15,4 C 0,0 km/h
05.11.2015 10:00 21,9 C 62 % 1020,1 hPa 0,0 l/m 0,0 km/h W-NW 14,3 C 21,9 C 0,0 km/h
05.11.2015 11:00 21,9 C 59 % 1019,9 hPa 0,0 l/m 0,0 km/h W 13,5 C 21,9 C 0,0 km/h
05.11.2015 12:00 23,4 C 54 % 1019,0 hPa 0,0 l/m 0,0 km/h NW 13,6 C 23,4 C 0,0 km/h
05.11.2015 13:00 24,5 C 48 % 1018,5 hPa 0,0 l/m 0,0 km/h N-NW 12,8 C 24,5 C 0,0 km/h
05.11.2015 14:00 26,4 C 43 % 1018,3 hPa 0,0 l/m 0,0 km/h N 12,8 C 26,4 C 0,0 km/h
05.11.2015 15:00 27,3 C 41 % 1018,0 hPa 0,0 l/m 0,0 km/h N 12,9 C 27,3 C 0,0 km/h
05.11.2015 16:00 20,2 C 53 % 1018,4 hPa 0,0 l/m 0,0 km/h N 10,3 C 20,2 C 0,0 km/h
05.11.2015 17:00 12,9 C 74 % 1018,8 hPa 0,0 l/m 0,0 km/h O-SO 8,4 C 12,9 C 0,0 km/h
05.11.2015 18:00 11,1 C 82 % 1019,3 hPa 0,0 l/m 0,0 km/h SO 8,1 C 11,1 C 0,0 km/h
05.11.2015 19:00 9,8 C 84 % 1019,4 hPa 0,0 l/m 0,0 km/h O-NO 7,2 C 9,8 C 0,0 km/h
05.11.2015 20:00 10,1 C 86 % 1019,2 hPa 0,0 l/m 0,0 km/h O-SO 7,9 C 10,1 C 0,0 km/h
05.11.2015 21:00 9,9 C 87 % 1019,3 hPa 0,0 l/m 0,0 km/h O-SO 7,8 C 9,9 C 0,0 km/h
05.11.2015 22:00 9,2 C 87 % 1019,5 hPa 0,0 l/m 0,0 km/h O-SO 7,2 C 9,2 C 0,0 km/h
05.11.2015 23:00 9,2 C 88 % 1020,0 hPa 0,0 l/m 0,0 km/h O-SO 7,3 C 9,2 C 0,0 km/h
06.11.2015 00:00 10,1 C 88 % 1020,3 hPa 0,0 l/m 0,0 km/h O-SO 8,2 C 10,1 C 0,0 km/h
06.11.2015 01:00 9,5 C 88 % 1020,4 hPa 0,0 l/m 0,0 km/h NO 7,6 C 9,5 C 0,0 km/h
06.11.2015 02:00 9,2 C 88 % 1020,8 hPa 0,0 l/m 0,0 km/h O-NO 7,3 C 9,2 C 0,0 km/h
06.11.2015 03:00 9,6 C 88 % 1020,5 hPa 0,0 l/m 0,0 km/h O-SO 7,7 C 9,6 C 0,0 km/h
06.11.2015 04:00 9,0 C 88 % 1020,5 hPa 0,0 l/m 0,0 km/h O-SO 7,1 C 9,0 C 0,0 km/h
06.11.2015 05:00 8,9 C 88 % 1021,0 hPa 0,0 l/m 0,0 km/h SO 7,0 C 8,9 C 0,0 km/h
06.11.2015 06:00 9,3 C 88 % 1021,3 hPa 0,0 l/m 0,0 km/h O-SO 7,4 C 9,3 C 0,0 km/h
06.11.2015 07:00 9,5 C 88 % 1021,7 hPa 0,0 l/m 0,0 km/h SO 7,6 C 9,5 C 0,0 km/h
06.11.2015 08:00 15,6 C 84 % 1022,1 hPa 0,0 l/m 0,0 km/h SO 12,9 C 15,6 C 0,0 km/h
06.11.2015 09:00 15,6 C 80 % 1022,1 hPa 0,0 l/m 0,0 km/h W 12,2 C 15,6 C 0,0 km/h
06.11.2015 10:00 18,3 C 69 % 1022,3 hPa 0,0 l/m 0,0 km/h W-SW 12,5 C 18,3 C 0,0 km/h
06.11.2015 11:00 20,4 C 62 % 1022,0 hPa 0,0 l/m 0,0 km/h W-SW 12,9 C 20,4 C 0,0 km/h
06.11.2015 12:00 20,3 C 62 % 1021,7 hPa 0,0 l/m 0,0 km/h SW 12,8 C 20,3 C 0,0 km/h
06.11.2015 13:00 21,8 C 59 % 1021,8 hPa 0,0 l/m 0,0 km/h W-SW 13,4 C 21,8 C 0,0 km/h
06.11.2015 14:00 24,9 C 51 % 1021,8 hPa 0,0 l/m 0,0 km/h W 14,1 C 24,9 C 0,0 km/h
06.11.2015 15:00 20,9 C 58 % 1022,2 hPa 0,0 l/m 0,0 km/h W-SW 12,3 C 20,9 C 0,0 km/h
06.11.2015 16:00 20,1 C 64 % 1022,7 hPa 0,0 l/m 0,0 km/h S-SW 13,1 C 20,1 C 0,0 km/h
06.11.2015 17:00 16,4 C 75 % 1023,2 hPa 0,0 l/m 0,0 km/h S-SW 12,0 C 16,4 C 0,0 km/h
06.11.2015 18:00 16,2 C 76 % 1023,7 hPa 0,0 l/m 0,0 km/h S 12,0 C 16,2 C 0,0 km/h
06.11.2015 19:00 15,5 C 78 % 1024,1 hPa 0,0 l/m 0,0 km/h S-SW 11,7 C 15,5 C 0,0 km/h
06.11.2015 20:00 15,6 C 79 % 1024,3 hPa 0,0 l/m 0,0 km/h S 12,0 C 15,6 C 0,0 km/h
06.11.2015 21:00 16,3 C 78 % 1024,4 hPa 0,0 l/m 0,0 km/h S 12,5 C 16,3 C 0,0 km/h
06.11.2015 22:00 16,6 C 77 % 1024,5 hPa 0,0 l/m 0,0 km/h SW 12,5 C 16,6 C 0,0 km/h
06.11.2015 23:00 16,7 C 76 % 1024,4 hPa 0,0 l/m 0,0 km/h SO 12,4 C 16,7 C 0,0 km/h
07.11.2015 00:00 16,3 C 76 % 1024,5 hPa 0,0 l/m 0,0 km/h SO 12,1 C 16,3 C 0,0 km/h
07.11.2015 01:00 14,8 C 83 % 1024,6 hPa 0,0 l/m 0,0 km/h SO 11,9 C 14,8 C 0,0 km/h
07.11.2015 02:00 14,5 C 86 % 1024,2 hPa 0,0 l/m 0,0 km/h O-SO 12,2 C 14,5 C 0,0 km/h
07.11.2015 03:00 14,4 C 87 % 1024,0 hPa 0,0 l/m 0,0 km/h O-SO 12,3 C 14,4 C 0,0 km/h
07.11.2015 04:00 14,5 C 88 % 1023,6 hPa 0,0 l/m 0,0 km/h O-SO 12,5 C 14,5 C 0,0 km/h
07.11.2015 05:00 14,3 C 88 % 1024,4 hPa 0,0 l/m 0,0 km/h O-SO 12,3 C 14,3 C 0,0 km/h
07.11.2015 06:00 14,3 C 88 % 1024,4 hPa 0,0 l/m 0,0 km/h O-SO 12,3 C 14,3 C 0,0 km/h
07.11.2015 07:00 14,4 C 87 % 1025,2 hPa 0,0 l/m 0,0 km/h O-SO 12,3 C 14,4 C 0,0 km/h
07.11.2015 08:00 15,2 C 87 % 1025,7 hPa 0,0 l/m 0,0 km/h SO 13,0 C 15,2 C 0,0 km/h
07.11.2015 09:00 16,8 C 87 % 1025,3 hPa 0,0 l/m 0,0 km/h SO 14,6 C 16,8 C 0,0 km/h
07.11.2015 10:00 22,3 C 81 % 1024,8 hPa 0,0 l/m 0,0 km/h S-SO 18,9 C 22,3 C 0,0 km/h
07.11.2015 11:00 25,8 C 62 % 1024,8 hPa 0,0 l/m 0,0 km/h SO 18,0 C 25,8 C 0,0 km/h
07.11.2015 12:00 25,6 C 59 % 1024,1 hPa 0,0 l/m 0,0 km/h O 17,0 C 25,6 C 0,0 km/h
07.11.2015 13:00 24,2 C 60 % 1023,9 hPa 0,0 l/m 0,0 km/h S 15,9 C 24,2 C 0,0 km/h
07.11.2015 14:00 30,1 C 46 % 1023,9 hPa 0,0 l/m 0,0 km/h SO 17,2 C 30,1 C 0,0 km/h
07.11.2015 15:00 31,2 C 43 % 1023,6 hPa 0,0 l/m 0,0 km/h SO 17,1 C 31,2 C 0,0 km/h
07.11.2015 16:00 24,5 C 57 % 1023,5 hPa 0,0 l/m 0,0 km/h SO 15,4 C 24,5 C 0,0 km/h
07.11.2015 17:00 17,1 C 78 % 1024,0 hPa 0,0 l/m 0,0 km/h SO 13,2 C 17,1 C 0,0 km/h
07.11.2015 18:00 15,8 C 84 % 1024,0 hPa 0,0 l/m 0,0 km/h O-SO 13,1 C 15,8 C 0,0 km/h
07.11.2015 19:00 15,1 C 85 % 1024,4 hPa 0,0 l/m 0,0 km/h O 12,6 C 15,1 C 0,0 km/h
07.11.2015 20:00 14,5 C 86 % 1024,8 hPa 0,0 l/m 0,0 km/h SO 12,2 C 14,5 C 0,0 km/h
07.11.2015 21:00 13,9 C 87 % 1025,2 hPa 0,0 l/m 0,0 km/h O 11,8 C 13,9 C 0,0 km/h
07.11.2015 22:00 12,6 C 87 % 1025,3 hPa 0,0 l/m 0,0 km/h O-SO 10,5 C 12,6 C 0,0 km/h
07.11.2015 23:00 12,4 C 87 % 1026,0 hPa 0,0 l/m 0,0 km/h O-SO 10,3 C 12,4 C 0,0 km/h
08.11.2015 00:00 11,8 C 87 % 1025,8 hPa 0,0 l/m 0,0 km/h O-NO 9,7 C 11,8 C 0,0 km/h
08.11.2015 01:00 11,3 C 87 % 1026,4 hPa 0,0 l/m 0,0 km/h SO 9,2 C 11,3 C 0,0 km/h
08.11.2015 02:00 11,3 C 87 % 1027,2 hPa 0,0 l/m 0,0 km/h O 9,2 C 11,3 C 0,0 km/h
08.11.2015 03:00 10,9 C 86 % 1027,1 hPa 0,0 l/m 0,0 km/h O-NO 8,7 C 10,9 C 0,0 km/h
08.11.2015 04:00 10,6 C 85 % 1027,2 hPa 0,0 l/m 0,0 km/h O-NO 8,2 C 10,6 C 0,0 km/h
08.11.2015 05:00 10,7 C 85 % 1027,0 hPa 0,0 l/m 0,0 km/h N-NO 8,3 C 10,7 C 0,0 km/h
08.11.2015 06:00 10,2 C 85 % 1027,1 hPa 0,0 l/m 0,0 km/h O 7,8 C 10,2 C 0,0 km/h
08.11.2015 07:00 9,8 C 85 % 1027,2 hPa 0,0 l/m 0,0 km/h SO 7,4 C 9,8 C 0,0 km/h
08.11.2015 08:00 14,2 C 86 % 1027,3 hPa 0,0 l/m 0,0 km/h O-NO 11,9 C 14,2 C 0,0 km/h
08.11.2015 09:00 19,3 C 79 % 1027,2 hPa 0,0 l/m 0,0 km/h N-NO 15,6 C 19,3 C 0,0 km/h
08.11.2015 10:00 23,6 C 64 % 1027,0 hPa 0,0 l/m 0,0 km/h N 16,4 C 23,6 C 0,0 km/h
08.11.2015 11:00 23,9 C 58 % 1026,7 hPa 0,0 l/m 0,0 km/h W 15,1 C 23,9 C 0,0 km/h
08.11.2015 12:00 25,2 C 54 % 1025,6 hPa 0,0 l/m 0,0 km/h SW 15,2 C 25,2 C 0,0 km/h
08.11.2015 13:00 26,9 C 49 % 1024,7 hPa 0,0 l/m 0,0 km/h NW 15,3 C 26,9 C 0,0 km/h
08.11.2015 14:00 28,9 C 45 % 1024,0 hPa 0,0 l/m 0,0 km/h W 15,8 C 28,9 C 0,0 km/h
08.11.2015 15:00 27,6 C 47 % 1023,9 hPa 0,0 l/m 0,0 km/h W 15,3 C 27,6 C 0,0 km/h
08.11.2015 16:00 22,6 C 58 % 1023,6 hPa 0,0 l/m 0,0 km/h W 13,9 C 22,6 C 0,0 km/h
08.11.2015 17:00 15,6 C 74 % 1023,4 hPa 0,0 l/m 0,0 km/h W 11,0 C 15,6 C 0,0 km/h
08.11.2015 18:00 13,3 C 82 % 1023,5 hPa 0,0 l/m 0,0 km/h SO 10,3 C 13,3 C 0,0 km/h
08.11.2015 19:00 12,8 C 85 % 1023,4 hPa 0,0 l/m 0,0 km/h SO 10,3 C 12,8 C 0,0 km/h
08.11.2015 20:00 12,5 C 87 % 1022,9 hPa 0,0 l/m 0,0 km/h SO 10,4 C 12,5 C 0,0 km/h
08.11.2015 21:00 11,8 C 87 % 1022,8 hPa 0,0 l/m 0,0 km/h O-SO 9,7 C 11,8 C 0,0 km/h
08.11.2015 22:00 11,3 C 88 % 1022,8 hPa 0,0 l/m 0,0 km/h S-SO 9,4 C 11,3 C 0,0 km/h
08.11.2015 23:00 11,6 C 88 % 1022,5 hPa 0,0 l/m 0,0 km/h S-SW 9,7 C 11,6 C 0,0 km/h
Min-Datum _ 04.11.15 05.11.15 03.11.15 - 02.11.15 - 04.11.15 04.11.15 02.11.15
_ Min-Zeit 06:42 15:42 16:42 - 00:42 - 06:42 06:42 00:42
Minimum _ 1,3 C 41 % 1018,0 hPa - 0,0 km/h - -0,5 C 1,3 C 0,0 km/h
Max-Datum _ 07.11.15 03.11.15 08.11.15 02.11.15 02.11.15 - 07.11.15 07.11.15 02.11.15
_ Max-Zeit 15:42 12:42 08:42 22:42 00:42 - 10:42 15:42 00:42
Maximum _ 31,2 C 90 % 1027,3 hPa 0,4 l/m 0,0 km/h
SO
- 18,9 C 31,2 C 0,0 km/h
SO
Durchschnitt _ 12,1 C 80 % 1022,3 hPa #0,4 l/m 0,0 km/h SO 8,4 C 12,1 C 0,0 km/h
www.sexauwetter.de